createdAt,value
2022-07-26T00:00:10.677Z,6.80
2022-07-26T00:00:43.033Z,6.43
2022-07-26T00:01:15.890Z,7.00
2022-07-26T00:01:48.856Z,7.00
2022-07-26T00:02:21.309Z,6.85
2022-07-26T00:02:53.703Z,6.38
2022-07-26T00:03:26.083Z,6.75
2022-07-26T00:03:58.565Z,7.53
2022-07-26T00:04:30.953Z,6.13
2022-07-26T00:05:03.625Z,6.65
2022-07-26T00:05:39.117Z,6.80
2022-07-26T00:06:11.629Z,6.75
2022-07-26T00:06:44.056Z,7.00
2022-07-26T00:07:16.391Z,6.78
2022-07-26T00:07:48.810Z,6.30
2022-07-26T00:08:21.332Z,6.93
2022-07-26T00:08:54.223Z,6.82
2022-07-26T00:09:26.730Z,7.47
2022-07-26T00:09:59.315Z,6.95
2022-07-26T00:10:31.648Z,6.90
2022-07-26T00:11:07.256Z,7.10
2022-07-26T00:11:40.198Z,6.75
2022-07-26T00:12:12.589Z,7.32
2022-07-26T00:12:44.953Z,6.85
2022-07-26T00:13:18.445Z,7.28
2022-07-26T00:13:51.130Z,7.00
2022-07-26T00:14:23.503Z,7.00
2022-07-26T00:14:55.973Z,7.60
2022-07-26T00:15:28.277Z,7.90
2022-07-26T00:16:00.591Z,6.97
2022-07-26T00:16:33.370Z,6.97
2022-07-26T00:17:06.112Z,7.85
2022-07-26T00:17:38.860Z,7.88
2022-07-26T00:18:12.342Z,7.53
2022-07-26T00:18:45.040Z,6.93
2022-07-26T00:19:17.835Z,6.90
2022-07-26T00:19:50.204Z,7.18
2022-07-26T00:20:22.521Z,6.82
2022-07-26T00:21:00.292Z,7.10
2022-07-26T00:21:34.770Z,7.72
2022-07-26T00:22:25.805Z,7.95
2022-07-26T00:22:58.469Z,7.10
2022-07-26T00:23:31.081Z,6.45
2022-07-26T00:24:04.181Z,7.28
2022-07-26T00:24:36.798Z,7.32
2022-07-26T00:25:09.833Z,6.40
2022-07-26T00:25:42.567Z,6.50
2022-07-26T00:26:14.860Z,7.47
2022-07-26T00:26:47.427Z,7.03
2022-07-26T00:27:19.942Z,6.80
2022-07-26T00:27:52.366Z,6.68
2022-07-26T00:28:24.718Z,6.53
2022-07-26T00:28:57.352Z,7.13
2022-07-26T00:29:29.742Z,6.55
2022-07-26T00:30:02.614Z,6.90
2022-07-26T00:30:34.993Z,6.97
2022-07-26T00:31:07.890Z,7.30
2022-07-26T00:31:40.308Z,7.55
2022-07-26T00:32:13.022Z,7.60
2022-07-26T00:32:45.834Z,7.13
2022-07-26T00:33:18.309Z,7.20
2022-07-26T00:33:50.698Z,6.57
2022-07-26T00:34:23.300Z,6.93
2022-07-26T00:34:55.767Z,6.90
2022-07-26T00:35:28.116Z,7.15
2022-07-26T00:36:00.450Z,7.43
2022-07-26T00:36:32.782Z,7.68
2022-07-26T00:37:05.335Z,6.60
2022-07-26T00:37:38.037Z,6.85
2022-07-26T00:38:10.604Z,7.38
2022-07-26T00:38:42.997Z,7.88
2022-07-26T00:39:15.327Z,7.15
2022-07-26T00:39:47.707Z,7.15
2022-07-26T00:40:20.272Z,6.97
2022-07-26T00:40:52.799Z,6.97
2022-07-26T00:41:25.207Z,7.45
2022-07-26T00:41:57.924Z,7.85
2022-07-26T00:42:30.617Z,7.47
2022-07-26T00:43:02.959Z,7.35
2022-07-26T00:43:35.750Z,7.28
2022-07-26T00:44:08.233Z,7.10
2022-07-26T00:44:41.513Z,7.55
2022-07-26T00:45:14.479Z,7.20
2022-07-26T00:45:46.958Z,7.55
2022-07-26T00:46:19.576Z,7.65
2022-07-26T00:46:52.107Z,6.70
2022-07-26T00:47:24.474Z,6.95
2022-07-26T00:47:56.868Z,7.32
2022-07-26T00:48:29.207Z,7.30
2022-07-26T00:49:01.736Z,7.00
2022-07-26T00:49:34.269Z,7.70
2022-07-26T00:50:08.705Z,7.22
2022-07-26T00:50:41.021Z,7.97
2022-07-26T00:51:13.396Z,7.65
2022-07-26T00:51:46.552Z,7.07
2022-07-26T00:52:19.145Z,7.22
2022-07-26T00:52:51.760Z,6.97
2022-07-26T00:53:24.125Z,7.05
2022-07-26T00:53:56.498Z,7.32
2022-07-26T00:54:28.957Z,6.70
2022-07-26T00:55:01.411Z,7.20
2022-07-26T00:55:34.072Z,7.20
2022-07-26T00:56:06.416Z,7.20
2022-07-26T00:56:39.149Z,7.88
2022-07-26T00:57:12.273Z,7.40
2022-07-26T00:57:46.003Z,8.02
2022-07-26T00:58:18.863Z,7.47
2022-07-26T00:58:51.215Z,6.82
2022-07-26T00:59:23.658Z,7.57
2022-07-26T00:59:55.984Z,7.38
2022-07-26T01:00:29.107Z,7.00
2022-07-26T01:01:01.556Z,7.88
2022-07-26T01:01:35.464Z,6.90
2022-07-26T01:02:09.688Z,7.22
2022-07-26T01:02:42.507Z,7.68
2022-07-26T01:03:14.851Z,7.57
2022-07-26T01:03:50.803Z,7.32
2022-07-26T01:04:23.199Z,6.95
2022-07-26T01:04:55.600Z,7.32
2022-07-26T01:05:28.264Z,7.82
2022-07-26T01:06:01.266Z,6.88
2022-07-26T01:06:33.598Z,7.57
2022-07-26T01:07:15.029Z,7.38
2022-07-26T01:07:49.232Z,7.60
2022-07-26T01:08:21.778Z,7.00
2022-07-26T01:08:54.201Z,7.13
2022-07-26T01:09:26.679Z,7.45
2022-07-26T01:09:58.967Z,7.32
2022-07-26T01:10:31.387Z,7.90
2022-07-26T01:11:03.828Z,7.65
2022-07-26T01:11:36.161Z,6.72
2022-07-26T01:12:09.154Z,7.43
2022-07-26T01:12:42.046Z,7.05
2022-07-26T01:13:19.778Z,8.18
2022-07-26T01:13:52.259Z,8.25
2022-07-26T01:14:24.771Z,7.65
2022-07-26T01:14:57.175Z,7.25
2022-07-26T01:15:29.620Z,7.40
2022-07-26T01:16:02.156Z,8.60
2022-07-26T01:16:35.286Z,7.65
2022-07-26T01:17:07.619Z,7.53
2022-07-26T01:17:40.670Z,7.35
2022-07-26T01:18:13.144Z,7.45
2022-07-26T01:18:45.498Z,7.25
2022-07-26T01:19:18.267Z,7.97
2022-07-26T01:19:50.637Z,7.53
2022-07-26T01:20:23.362Z,7.25
2022-07-26T01:20:56.265Z,7.38
2022-07-26T01:21:29.841Z,7.20
2022-07-26T01:22:02.235Z,7.55
2022-07-26T01:22:34.658Z,7.70
2022-07-26T01:23:07.999Z,7.35
2022-07-26T01:23:40.597Z,7.35
2022-07-26T01:24:13.066Z,8.07
2022-07-26T01:24:45.369Z,7.05
2022-07-26T01:25:28.188Z,7.93
2022-07-26T01:26:00.511Z,7.43
2022-07-26T01:26:33.197Z,7.63
2022-07-26T01:27:05.804Z,7.60
2022-07-26T01:27:41.084Z,8.07
2022-07-26T01:28:20.144Z,8.02
2022-07-26T01:28:53.090Z,7.80
2022-07-26T01:29:35.887Z,7.43
2022-07-26T01:30:10.397Z,7.20
2022-07-26T01:30:42.718Z,7.35
2022-07-26T01:31:15.353Z,7.30
2022-07-26T01:31:47.960Z,6.47
2022-07-26T01:32:20.605Z,7.50
2022-07-26T01:32:52.950Z,7.72
2022-07-26T01:33:28.233Z,7.60
2022-07-26T01:34:00.629Z,7.15
2022-07-26T01:34:33.085Z,7.65
2022-07-26T01:35:05.639Z,7.68
2022-07-26T01:35:37.981Z,6.85
2022-07-26T01:36:10.465Z,8.02
2022-07-26T01:36:42.773Z,7.40
2022-07-26T01:37:15.100Z,7.22
2022-07-26T01:37:47.582Z,6.70
2022-07-26T01:38:20.355Z,7.60
2022-07-26T01:38:52.867Z,7.43
2022-07-26T01:39:25.332Z,7.75
2022-07-26T01:39:57.626Z,6.95
2022-07-26T01:40:30.088Z,7.60
2022-07-26T01:41:02.704Z,6.95
2022-07-26T01:41:38.356Z,7.53
2022-07-26T01:42:10.966Z,7.20
2022-07-26T01:42:43.675Z,7.05
2022-07-26T01:43:16.171Z,7.70
2022-07-26T01:43:48.548Z,7.35
2022-07-26T01:44:20.867Z,6.93
2022-07-26T01:44:53.318Z,7.63
2022-07-26T01:45:25.741Z,7.53
2022-07-26T01:45:58.322Z,8.32
2022-07-26T01:46:30.773Z,7.07
2022-07-26T01:47:03.226Z,7.70
2022-07-26T01:47:35.957Z,6.88
2022-07-26T01:48:08.802Z,8.15
2022-07-26T01:48:41.571Z,7.40
2022-07-26T01:49:14.269Z,7.07
2022-07-26T01:49:46.760Z,7.32
2022-07-26T01:50:19.158Z,7.38
2022-07-26T01:50:51.492Z,7.35
2022-07-26T01:51:23.787Z,7.47
2022-07-26T01:51:56.324Z,7.85
2022-07-26T01:52:28.645Z,6.97
2022-07-26T01:53:01.001Z,8.25
2022-07-26T01:53:33.429Z,6.95
2022-07-26T01:54:06.081Z,7.30
2022-07-26T01:54:38.741Z,7.30
2022-07-26T01:55:11.096Z,7.55
2022-07-26T01:55:43.390Z,7.57
2022-07-26T01:56:15.840Z,6.93
2022-07-26T01:56:48.146Z,8.00
2022-07-26T01:57:20.555Z,7.20
2022-07-26T01:57:53.856Z,7.40
2022-07-26T01:58:26.307Z,7.40
2022-07-26T01:58:58.919Z,7.65
2022-07-26T01:59:32.951Z,7.40
2022-07-26T02:00:06.787Z,7.70
2022-07-26T02:00:39.717Z,7.60
2022-07-26T02:01:12.690Z,7.72
2022-07-26T02:01:45.120Z,7.88
2022-07-26T02:02:17.616Z,7.65
2022-07-26T02:02:50.190Z,7.82
2022-07-26T02:03:22.649Z,7.60
2022-07-26T02:03:55.135Z,7.72
2022-07-26T02:04:46.197Z,7.07
2022-07-26T02:05:18.569Z,7.00
2022-07-26T02:05:50.886Z,7.75
2022-07-26T02:06:23.181Z,8.63
2022-07-26T02:06:55.988Z,7.32
2022-07-26T02:07:29.157Z,7.80
2022-07-26T02:08:01.506Z,7.70
2022-07-26T02:08:34.321Z,7.38
2022-07-26T02:09:10.644Z,7.75
2022-07-26T02:09:45.956Z,7.63
2022-07-26T02:10:20.158Z,7.72
2022-07-26T02:11:03.704Z,8.13
2022-07-26T02:11:36.314Z,7.35
2022-07-26T02:12:08.756Z,7.72
2022-07-26T02:12:41.286Z,7.95
2022-07-26T02:13:14.080Z,7.78
2022-07-26T02:13:51.253Z,7.78
2022-07-26T02:14:28.170Z,8.37
2022-07-26T02:15:00.827Z,7.70
2022-07-26T02:15:33.289Z,7.90
2022-07-26T02:16:07.172Z,7.10
2022-07-26T02:16:39.522Z,7.60
2022-07-26T02:17:11.973Z,8.25
2022-07-26T02:17:44.766Z,8.18
2022-07-26T02:18:17.240Z,8.25
2022-07-26T02:18:49.706Z,8.23
2022-07-26T02:19:22.003Z,8.23
2022-07-26T02:19:54.371Z,7.40
2022-07-26T02:20:26.670Z,7.50
2022-07-26T02:20:59.826Z,7.38
2022-07-26T02:21:32.646Z,7.50
2022-07-26T02:22:05.060Z,6.95
2022-07-26T02:22:37.689Z,8.57
2022-07-26T02:23:10.155Z,7.30
2022-07-26T02:23:42.493Z,7.93
2022-07-26T02:24:14.860Z,7.82
2022-07-26T02:24:47.773Z,7.82
2022-07-26T02:25:20.319Z,7.30
2022-07-26T02:25:52.904Z,7.85
2022-07-26T02:26:25.203Z,7.32
2022-07-26T02:26:58.055Z,7.55
2022-07-26T02:27:30.359Z,6.80
2022-07-26T02:28:02.884Z,6.57
2022-07-26T02:28:35.221Z,7.28
2022-07-26T02:29:08.415Z,8.30
2022-07-26T02:29:40.950Z,8.23
2022-07-26T02:30:13.857Z,7.15
2022-07-26T02:30:46.648Z,7.68
2022-07-26T02:31:19.360Z,7.45
2022-07-26T02:31:53.836Z,7.82
2022-07-26T02:32:26.178Z,7.38
2022-07-26T02:32:58.669Z,7.18
2022-07-26T02:33:31.131Z,7.50
2022-07-26T02:34:03.591Z,7.57
2022-07-26T02:34:35.897Z,7.10
2022-07-26T02:35:09.172Z,7.50
2022-07-26T02:35:41.862Z,7.85
2022-07-26T02:36:14.283Z,7.85
2022-07-26T02:36:46.620Z,8.00
2022-07-26T02:37:18.855Z,8.02
2022-07-26T02:37:51.189Z,7.40
2022-07-26T02:38:25.123Z,7.57
2022-07-26T02:38:57.602Z,7.82
2022-07-26T02:39:30.144Z,7.25
2022-07-26T02:40:03.059Z,7.20
2022-07-26T02:40:36.032Z,7.60
2022-07-26T02:41:08.497Z,8.02
2022-07-26T02:41:41.284Z,7.45
2022-07-26T02:42:13.778Z,7.95
2022-07-26T02:42:46.130Z,7.72
2022-07-26T02:43:18.388Z,7.40
2022-07-26T02:43:50.760Z,7.78
2022-07-26T02:44:23.596Z,7.47
2022-07-26T02:44:56.913Z,8.43
2022-07-26T02:45:29.261Z,8.10
2022-07-26T02:46:02.697Z,7.45
2022-07-26T02:46:35.540Z,7.25
2022-07-26T02:47:07.919Z,8.15
2022-07-26T02:47:51.080Z,7.50
2022-07-26T02:48:23.397Z,7.90
2022-07-26T02:48:56.045Z,8.13
2022-07-26T02:49:28.577Z,7.95
2022-07-26T02:50:00.881Z,7.80
2022-07-26T02:50:33.423Z,8.20
2022-07-26T02:51:05.794Z,8.18
2022-07-26T02:51:38.208Z,7.75
2022-07-26T02:52:10.929Z,9.55
2022-07-26T02:52:43.213Z,9.43
2022-07-26T02:53:15.535Z,7.90
2022-07-26T02:53:47.935Z,7.93
2022-07-26T02:54:20.442Z,8.52
2022-07-26T02:54:52.761Z,8.48
2022-07-26T02:55:25.792Z,8.35
2022-07-26T02:55:58.107Z,8.30
2022-07-26T02:56:30.475Z,8.45
2022-07-26T02:57:02.994Z,8.48
2022-07-26T02:57:46.370Z,7.60
2022-07-26T02:58:21.839Z,7.85
2022-07-26T02:58:54.364Z,7.65
2022-07-26T02:59:26.831Z,7.75
2022-07-26T02:59:59.465Z,8.63
2022-07-26T03:00:32.001Z,7.53
2022-07-26T03:01:04.899Z,7.65
2022-07-26T03:01:39.189Z,7.75
2022-07-26T03:02:11.563Z,8.40
2022-07-26T03:02:44.370Z,8.23
2022-07-26T03:03:16.859Z,8.05
2022-07-26T03:03:51.101Z,7.57
2022-07-26T03:04:23.858Z,8.98
2022-07-26T03:04:56.272Z,8.98
2022-07-26T03:05:28.779Z,8.20
2022-07-26T03:06:01.199Z,8.13
2022-07-26T03:06:33.727Z,8.13
2022-07-26T03:07:05.949Z,7.88
2022-07-26T03:07:38.373Z,7.00
2022-07-26T03:08:10.870Z,8.52
2022-07-26T03:08:43.267Z,8.57
2022-07-26T03:09:15.838Z,8.32
2022-07-26T03:09:48.213Z,8.40
2022-07-26T03:10:20.685Z,8.65
2022-07-26T03:10:52.948Z,7.50
2022-07-26T03:11:25.353Z,8.32
2022-07-26T03:11:57.851Z,8.27
2022-07-26T03:12:30.953Z,8.43
2022-07-26T03:13:03.651Z,8.10
2022-07-26T03:13:36.097Z,7.47
2022-07-26T03:14:08.789Z,7.18
2022-07-26T03:14:41.594Z,8.13
2022-07-26T03:15:13.976Z,7.95
2022-07-26T03:15:46.636Z,7.88
2022-07-26T03:16:21.931Z,7.22
2022-07-26T03:16:54.315Z,8.23
2022-07-26T03:17:26.825Z,7.22
2022-07-26T03:17:59.360Z,7.43
2022-07-26T03:18:31.749Z,7.47
2022-07-26T03:19:04.665Z,7.03
2022-07-26T03:19:36.972Z,8.13
2022-07-26T03:20:09.724Z,8.13
2022-07-26T03:20:42.055Z,7.65
2022-07-26T03:21:14.455Z,8.00
2022-07-26T03:21:46.827Z,9.02
2022-07-26T03:22:19.336Z,7.55
2022-07-26T03:22:51.678Z,7.55
2022-07-26T03:23:24.213Z,7.78
2022-07-26T03:23:56.682Z,7.85
2022-07-26T03:24:29.021Z,7.53
2022-07-26T03:25:01.637Z,8.07
2022-07-26T03:25:34.206Z,8.35
2022-07-26T03:26:10.155Z,7.30
2022-07-26T03:26:42.498Z,7.78
2022-07-26T03:27:14.798Z,7.65
2022-07-26T03:27:47.315Z,7.53
2022-07-26T03:28:19.956Z,7.40
2022-07-26T03:28:53.060Z,8.20
2022-07-26T03:29:25.411Z,7.55
2022-07-26T03:29:57.781Z,7.70
2022-07-26T03:30:30.196Z,7.03
2022-07-26T03:31:02.714Z,7.95
2022-07-26T03:31:35.315Z,6.00
2022-07-26T03:32:07.727Z,7.38
2022-07-26T03:32:40.145Z,7.90
2022-07-26T03:33:12.967Z,6.88
2022-07-26T03:33:45.427Z,6.57
2022-07-26T03:34:17.979Z,7.38
2022-07-26T03:34:50.631Z,6.75
2022-07-26T03:35:23.155Z,7.20
2022-07-26T03:35:55.487Z,6.85
2022-07-26T03:36:27.854Z,7.95
2022-07-26T03:37:00.332Z,7.38
2022-07-26T03:37:45.884Z,7.40
2022-07-26T03:38:19.097Z,6.88
2022-07-26T03:38:51.586Z,7.10
2022-07-26T03:39:25.643Z,6.97
2022-07-26T03:39:57.997Z,7.05
2022-07-26T03:40:32.150Z,7.43
2022-07-26T03:41:04.579Z,8.05
2022-07-26T03:41:36.897Z,7.10
2022-07-26T03:42:09.241Z,7.25
2022-07-26T03:42:41.878Z,6.75
2022-07-26T03:43:14.536Z,6.88
2022-07-26T03:43:46.998Z,6.95
2022-07-26T03:44:19.417Z,7.15
2022-07-26T03:44:51.728Z,6.20
2022-07-26T03:45:24.171Z,7.00
2022-07-26T03:45:56.714Z,6.18
2022-07-26T03:46:29.133Z,6.40
2022-07-26T03:47:01.779Z,6.93
2022-07-26T03:47:34.160Z,6.35
2022-07-26T03:48:06.695Z,5.85
2022-07-26T03:48:39.325Z,6.70
2022-07-26T03:49:16.437Z,6.93
2022-07-26T03:49:49.688Z,6.65
2022-07-26T03:50:21.973Z,7.60
2022-07-26T03:50:54.386Z,6.90
2022-07-26T03:51:26.957Z,7.28
2022-07-26T03:51:59.294Z,6.97
2022-07-26T03:52:31.506Z,7.05
2022-07-26T03:53:04.179Z,7.32
2022-07-26T03:53:36.530Z,6.88
2022-07-26T03:54:09.172Z,7.38
2022-07-26T03:54:41.903Z,6.45
2022-07-26T03:55:33.029Z,6.80
2022-07-26T03:56:24.023Z,6.63
2022-07-26T03:56:56.641Z,6.75
2022-07-26T03:57:28.950Z,6.30
2022-07-26T03:58:01.364Z,5.88
2022-07-26T03:58:33.842Z,6.72
2022-07-26T03:59:08.293Z,6.57
2022-07-26T03:59:40.756Z,6.28
2022-07-26T04:00:13.731Z,5.63
2022-07-26T04:00:46.952Z,6.55
2022-07-26T04:01:19.777Z,6.15
2022-07-26T04:01:52.326Z,5.82
2022-07-26T04:02:24.840Z,6.18
2022-07-26T04:02:57.317Z,5.82
2022-07-26T04:03:29.877Z,5.80
2022-07-26T04:04:03.822Z,5.97
2022-07-26T04:04:36.237Z,5.13
2022-07-26T04:05:09.976Z,6.07
2022-07-26T04:05:48.604Z,6.40
2022-07-26T04:06:23.253Z,7.22
2022-07-26T04:06:56.796Z,5.82
2022-07-26T04:07:29.112Z,6.38
2022-07-26T04:08:04.081Z,6.50
2022-07-26T04:08:36.745Z,6.47
2022-07-26T04:09:09.167Z,5.80
2022-07-26T04:09:41.728Z,6.47
2022-07-26T04:10:15.896Z,6.70
2022-07-26T04:10:53.802Z,5.88
2022-07-26T04:11:27.789Z,6.32
2022-07-26T04:12:01.155Z,7.18
2022-07-26T04:12:33.496Z,5.80
2022-07-26T04:13:05.821Z,4.82
2022-07-26T04:13:38.306Z,6.85
2022-07-26T04:14:11.694Z,5.97
2022-07-26T04:14:44.337Z,4.95
2022-07-26T04:15:17.376Z,5.90
2022-07-26T04:15:49.828Z,6.00
2022-07-26T04:16:22.490Z,6.68
2022-07-26T04:16:55.041Z,6.82
2022-07-26T04:17:27.362Z,7.05
2022-07-26T04:17:59.679Z,6.70
2022-07-26T04:18:32.092Z,6.85
2022-07-26T04:19:04.406Z,7.28
2022-07-26T04:19:37.492Z,6.22
2022-07-26T04:20:12.747Z,6.57
2022-07-26T04:20:45.335Z,6.90
2022-07-26T04:21:18.036Z,5.50
2022-07-26T04:21:50.459Z,7.15
2022-07-26T04:22:22.786Z,6.80
2022-07-26T04:22:55.133Z,6.18
2022-07-26T04:23:27.672Z,6.38
2022-07-26T04:24:00.006Z,6.93
2022-07-26T04:24:32.399Z,6.18
2022-07-26T04:25:05.959Z,4.88
2022-07-26T04:25:40.855Z,6.55
2022-07-26T04:26:14.449Z,6.15
2022-07-26T04:26:47.064Z,6.50
2022-07-26T04:27:19.530Z,6.90
2022-07-26T04:27:52.099Z,6.95
2022-07-26T04:28:27.710Z,6.45
2022-07-26T04:29:00.271Z,5.65
2022-07-26T04:29:33.020Z,6.05
2022-07-26T04:30:09.568Z,6.45
2022-07-26T04:30:44.913Z,5.50
2022-07-26T04:31:17.632Z,5.97
2022-07-26T04:31:49.997Z,6.13
2022-07-26T04:32:22.379Z,6.15
2022-07-26T04:32:54.930Z,6.25
2022-07-26T04:33:27.313Z,6.20
2022-07-26T04:33:59.750Z,6.55
2022-07-26T04:34:32.138Z,6.85
2022-07-26T04:35:04.805Z,6.63
2022-07-26T04:35:37.487Z,6.22
2022-07-26T04:36:09.923Z,6.05
2022-07-26T04:36:42.319Z,5.88
2022-07-26T04:37:14.788Z,6.50
2022-07-26T04:37:47.723Z,6.30
2022-07-26T04:38:20.546Z,6.45
2022-07-26T04:38:52.910Z,6.13
2022-07-26T04:39:25.253Z,7.15
2022-07-26T04:39:57.647Z,6.45
2022-07-26T04:40:33.762Z,7.38
2022-07-26T04:41:06.352Z,6.75
2022-07-26T04:41:39.038Z,6.13
2022-07-26T04:42:11.975Z,6.75
2022-07-26T04:42:44.527Z,6.13
2022-07-26T04:43:17.061Z,6.45
2022-07-26T04:43:52.421Z,6.07
2022-07-26T04:44:24.746Z,6.50
2022-07-26T04:44:57.051Z,6.13
2022-07-26T04:45:30.130Z,6.32
2022-07-26T04:46:02.495Z,5.72
2022-07-26T04:46:34.926Z,5.57
2022-07-26T04:47:07.359Z,6.28
2022-07-26T04:47:43.197Z,6.00
2022-07-26T04:48:15.756Z,6.00
2022-07-26T04:48:48.180Z,5.72
2022-07-26T04:49:20.658Z,5.63
2022-07-26T04:49:53.105Z,5.50
2022-07-26T04:50:28.214Z,6.20
2022-07-26T04:51:01.845Z,5.97
2022-07-26T04:51:34.218Z,6.10
2022-07-26T04:52:06.597Z,5.68
2022-07-26T04:52:39.221Z,5.72
2022-07-26T04:53:11.785Z,4.90
2022-07-26T04:53:44.099Z,5.45
2022-07-26T04:54:20.922Z,5.72
2022-07-26T04:54:53.608Z,6.45
2022-07-26T04:55:25.994Z,6.40
2022-07-26T04:55:58.414Z,7.53
2022-07-26T04:56:31.571Z,5.55
2022-07-26T04:57:03.984Z,6.55
2022-07-26T04:57:36.814Z,6.15
2022-07-26T04:58:10.639Z,5.25
2022-07-26T04:58:43.137Z,5.47
2022-07-26T04:59:21.312Z,4.47
2022-07-26T05:00:16.819Z,6.03
2022-07-26T05:01:08.858Z,5.90
2022-07-26T05:01:39.169Z,5.53
2022-07-26T05:02:11.870Z,6.20
2022-07-26T05:02:44.576Z,5.53
2022-07-26T05:03:17.054Z,4.57
2022-07-26T05:03:49.482Z,6.07
2022-07-26T05:04:22.252Z,5.32
2022-07-26T05:04:54.834Z,5.57
2022-07-26T05:05:29.311Z,7.32
2022-07-26T05:06:01.682Z,5.97
2022-07-26T05:06:34.077Z,4.95
2022-07-26T05:07:06.357Z,5.60
2022-07-26T05:07:42.530Z,5.38
2022-07-26T05:08:15.008Z,5.47
2022-07-26T05:08:47.788Z,5.72
2022-07-26T05:09:20.140Z,5.78
2022-07-26T05:09:52.612Z,6.38
2022-07-26T05:10:29.513Z,8.25
2022-07-26T05:11:01.883Z,6.50
2022-07-26T05:11:34.367Z,4.82
2022-07-26T05:12:06.929Z,5.90
2022-07-26T05:12:39.931Z,6.53
2022-07-26T05:13:12.271Z,5.43
2022-07-26T05:13:44.651Z,5.03
2022-07-26T05:14:17.139Z,5.07
2022-07-26T05:14:49.645Z,4.85
2022-07-26T05:15:22.069Z,6.15
2022-07-26T05:15:55.102Z,4.50
2022-07-26T05:16:27.570Z,7.93
2022-07-26T05:17:00.563Z,11.25
2022-07-26T05:17:43.161Z,7.70
2022-07-26T05:18:15.803Z,6.53
2022-07-26T05:18:49.120Z,7.93
2022-07-26T05:19:22.046Z,6.25
2022-07-26T05:19:55.048Z,5.95
2022-07-26T05:20:28.638Z,7.15
2022-07-26T05:21:01.885Z,4.97
2022-07-26T05:21:34.306Z,4.65
2022-07-26T05:22:06.722Z,5.65
2022-07-26T05:22:39.035Z,6.10
2022-07-26T05:23:11.803Z,7.18
2022-07-26T05:23:44.132Z,6.88
2022-07-26T05:24:16.492Z,6.50
2022-07-26T05:24:49.013Z,6.18
2022-07-26T05:25:21.477Z,5.53
2022-07-26T05:25:54.107Z,6.75
2022-07-26T05:26:26.548Z,7.03
2022-07-26T05:26:58.894Z,6.70
2022-07-26T05:27:31.233Z,6.57
2022-07-26T05:28:04.501Z,6.28
2022-07-26T05:28:38.499Z,5.68
2022-07-26T05:29:10.817Z,5.80
2022-07-26T05:29:43.124Z,6.38
2022-07-26T05:30:17.198Z,5.47
2022-07-26T05:30:49.690Z,5.75
2022-07-26T05:31:22.365Z,5.97
2022-07-26T05:31:54.897Z,6.35
2022-07-26T05:32:28.383Z,6.05
2022-07-26T05:33:00.874Z,6.13
2022-07-26T05:33:33.301Z,5.13
2022-07-26T05:34:05.811Z,5.68
2022-07-26T05:34:38.707Z,6.68
2022-07-26T05:35:11.112Z,6.28
2022-07-26T05:35:43.681Z,6.03
2022-07-26T05:36:16.165Z,5.70
2022-07-26T05:36:48.518Z,6.13
2022-07-26T05:37:20.848Z,6.07
2022-07-26T05:37:53.178Z,5.15
2022-07-26T05:38:26.160Z,6.13
2022-07-26T05:38:58.857Z,5.85
2022-07-26T05:39:31.223Z,5.93
2022-07-26T05:40:05.125Z,5.72
2022-07-26T05:40:37.500Z,5.85
2022-07-26T05:41:09.841Z,5.95
2022-07-26T05:41:42.309Z,5.53
2022-07-26T05:42:14.685Z,6.22
2022-07-26T05:42:47.505Z,6.00
2022-07-26T05:43:19.831Z,6.22
2022-07-26T05:43:52.388Z,4.82
2022-07-26T05:44:25.040Z,5.53
2022-07-26T05:44:59.039Z,5.10
2022-07-26T05:45:31.499Z,5.32
2022-07-26T05:46:09.252Z,5.72
2022-07-26T05:46:42.041Z,5.90
2022-07-26T05:47:14.540Z,5.68
2022-07-26T05:47:50.063Z,6.53
2022-07-26T05:48:22.435Z,6.50
2022-07-26T05:48:55.059Z,5.88
2022-07-26T05:49:27.614Z,5.78
2022-07-26T05:50:12.465Z,5.97
2022-07-26T05:50:44.811Z,6.25
2022-07-26T05:51:17.265Z,6.60
2022-07-26T05:51:49.672Z,5.85
2022-07-26T05:52:22.571Z,5.50
2022-07-26T05:52:55.254Z,5.90
2022-07-26T05:53:27.693Z,5.93
2022-07-26T05:54:00.243Z,5.65
2022-07-26T05:54:32.613Z,6.00
2022-07-26T05:55:05.251Z,5.13
2022-07-26T05:55:37.745Z,5.85
2022-07-26T05:56:10.081Z,5.97
2022-07-26T05:56:42.434Z,5.30
2022-07-26T05:57:14.758Z,6.53
2022-07-26T05:57:50.007Z,5.90
2022-07-26T05:58:22.415Z,5.68
2022-07-26T05:58:54.826Z,5.10
2022-07-26T05:59:27.168Z,4.85
2022-07-26T05:59:59.593Z,5.03
2022-07-26T06:00:31.930Z,5.60
2022-07-26T06:01:04.351Z,5.50
2022-07-26T06:01:36.785Z,5.32
2022-07-26T06:02:09.245Z,7.25
2022-07-26T06:02:41.934Z,5.40
2022-07-26T06:03:23.023Z,5.05
2022-07-26T06:03:55.412Z,5.70
2022-07-26T06:04:28.233Z,6.15
2022-07-26T06:05:00.609Z,5.28
2022-07-26T06:05:32.956Z,5.22
2022-07-26T06:06:05.402Z,5.22
2022-07-26T06:06:37.874Z,5.10
2022-07-26T06:07:10.481Z,6.18
2022-07-26T06:07:42.780Z,5.00
2022-07-26T06:08:15.098Z,5.50
2022-07-26T06:08:47.414Z,5.03
2022-07-26T06:09:19.901Z,5.53
2022-07-26T06:09:53.445Z,5.60
2022-07-26T06:10:25.762Z,5.20
2022-07-26T06:10:58.992Z,5.25
2022-07-26T06:11:31.528Z,5.63
2022-07-26T06:12:04.167Z,5.53
2022-07-26T06:12:36.791Z,5.10
2022-07-26T06:13:09.161Z,5.45
2022-07-26T06:13:41.506Z,5.20
2022-07-26T06:14:14.158Z,4.95
2022-07-26T06:14:46.972Z,5.68
2022-07-26T06:15:19.486Z,5.38
2022-07-26T06:15:52.044Z,5.55
2022-07-26T06:16:24.373Z,5.75
2022-07-26T06:16:57.121Z,5.45
2022-07-26T06:17:30.550Z,5.18
2022-07-26T06:18:03.098Z,5.50
2022-07-26T06:18:35.653Z,5.70
2022-07-26T06:19:07.931Z,5.60
2022-07-26T06:19:44.350Z,5.72
2022-07-26T06:20:19.816Z,5.25
2022-07-26T06:20:52.619Z,5.55
2022-07-26T06:21:24.993Z,5.60
2022-07-26T06:21:57.338Z,6.05
2022-07-26T06:22:29.861Z,5.70
2022-07-26T06:23:02.222Z,5.55
2022-07-26T06:23:35.238Z,5.63
2022-07-26T06:24:08.218Z,4.93
2022-07-26T06:24:40.941Z,5.18
2022-07-26T06:25:13.206Z,5.55
2022-07-26T06:25:45.511Z,5.38
2022-07-26T06:26:17.928Z,5.50
2022-07-26T06:26:56.730Z,6.05
2022-07-26T06:27:31.961Z,5.45
2022-07-26T06:28:05.264Z,5.00
2022-07-26T06:28:38.763Z,6.47
2022-07-26T06:29:11.106Z,5.43
2022-07-26T06:29:43.511Z,5.43
2022-07-26T06:30:16.016Z,5.70
2022-07-26T06:30:49.274Z,5.57
2022-07-26T06:31:21.815Z,5.82
2022-07-26T06:31:54.450Z,5.45
2022-07-26T06:32:26.833Z,5.72
2022-07-26T06:32:59.261Z,5.40
2022-07-26T06:33:31.654Z,5.38
2022-07-26T06:34:04.114Z,5.50
2022-07-26T06:34:36.720Z,5.20
2022-07-26T06:35:09.221Z,5.38
2022-07-26T06:35:42.457Z,5.95
2022-07-26T06:36:14.801Z,5.57
2022-07-26T06:36:47.146Z,5.35
2022-07-26T06:37:19.578Z,6.00
2022-07-26T06:37:51.981Z,5.20
2022-07-26T06:38:24.425Z,5.15
2022-07-26T06:38:56.757Z,5.57
2022-07-26T06:39:29.257Z,5.22
2022-07-26T06:40:01.703Z,6.10
2022-07-26T06:40:35.495Z,6.15
2022-07-26T06:41:07.864Z,5.57
2022-07-26T06:41:40.185Z,5.93
2022-07-26T06:42:12.498Z,5.57
2022-07-26T06:42:45.455Z,5.60
2022-07-26T06:43:17.774Z,6.25
2022-07-26T06:43:50.299Z,5.80
2022-07-26T06:44:23.114Z,5.50
2022-07-26T06:44:55.571Z,5.47
2022-07-26T06:45:28.689Z,5.40
2022-07-26T06:46:01.330Z,5.38
2022-07-26T06:46:33.949Z,4.95
2022-07-26T06:47:06.301Z,5.13
2022-07-26T06:47:38.631Z,5.15
2022-07-26T06:48:11.043Z,6.00
2022-07-26T06:48:47.487Z,6.07
2022-07-26T06:49:25.006Z,5.72
2022-07-26T06:49:57.757Z,5.38
2022-07-26T06:50:30.156Z,5.85
2022-07-26T06:51:02.603Z,5.22
2022-07-26T06:51:35.373Z,5.97
2022-07-26T06:52:07.694Z,5.30
2022-07-26T06:52:40.029Z,5.55
2022-07-26T06:53:12.367Z,5.50
2022-07-26T06:53:44.827Z,5.70
2022-07-26T06:54:17.229Z,5.80
2022-07-26T06:54:49.765Z,5.55
2022-07-26T06:55:22.115Z,5.72
2022-07-26T06:55:54.832Z,5.80
2022-07-26T06:56:27.350Z,5.95
2022-07-26T06:56:59.916Z,5.88
2022-07-26T06:57:32.412Z,5.68
2022-07-26T06:58:04.886Z,5.63
2022-07-26T06:58:37.177Z,6.35
2022-07-26T06:59:09.925Z,6.28
2022-07-26T06:59:42.295Z,6.35
2022-07-26T07:00:15.195Z,5.90
2022-07-26T07:00:47.545Z,6.43
2022-07-26T07:01:58.478Z,6.18
2022-07-26T07:02:12.414Z,6.70
2022-07-26T07:02:45.033Z,5.95
2022-07-26T07:03:17.430Z,6.10
2022-07-26T07:03:49.916Z,6.65
2022-07-26T07:04:22.312Z,5.75
2022-07-26T07:04:54.682Z,6.25
2022-07-26T07:05:27.126Z,6.07
2022-07-26T07:06:03.920Z,5.60
2022-07-26T07:06:36.303Z,6.55
2022-07-26T07:07:08.862Z,6.32
2022-07-26T07:07:42.691Z,5.95
2022-07-26T07:08:15.320Z,6.60
2022-07-26T07:08:48.564Z,6.03
2022-07-26T07:09:21.206Z,6.35
2022-07-26T07:09:53.744Z,5.65
2022-07-26T07:10:26.738Z,5.90
2022-07-26T07:10:59.189Z,6.00
2022-07-26T07:11:31.497Z,6.18
2022-07-26T07:12:09.478Z,5.78
2022-07-26T07:12:44.932Z,6.45
2022-07-26T07:13:17.521Z,6.35
2022-07-26T07:13:50.028Z,6.63
2022-07-26T07:14:22.411Z,6.03
2022-07-26T07:14:54.829Z,6.20
2022-07-26T07:15:27.315Z,6.13
2022-07-26T07:15:59.736Z,6.43
2022-07-26T07:16:32.233Z,5.90
2022-07-26T07:17:11.222Z,5.70
2022-07-26T07:17:46.406Z,6.45
2022-07-26T07:18:18.869Z,5.75
2022-07-26T07:18:51.581Z,6.68
2022-07-26T07:19:24.375Z,6.03
2022-07-26T07:19:56.865Z,5.90
2022-07-26T07:20:29.665Z,5.70
2022-07-26T07:21:02.013Z,5.40